sensor_id;sensor_type;location;lat;lon;timestamp;temperature;humidity
24224;DHT22;12359;49.716;9.212;2024-03-06T00:02:19;7.60;80.30
24224;DHT22;12359;49.716;9.212;2024-03-06T00:04:44;7.50;79.30
24224;DHT22;12359;49.716;9.212;2024-03-06T00:07:10;7.50;76.10
24224;DHT22;12359;49.716;9.212;2024-03-06T00:09:36;7.50;77.50
24224;DHT22;12359;49.716;9.212;2024-03-06T00:12:02;7.50;76.30
24224;DHT22;12359;49.716;9.212;2024-03-06T00:14:28;7.50;76.50
24224;DHT22;12359;49.716;9.212;2024-03-06T00:16:54;7.50;77.50
24224;DHT22;12359;49.716;9.212;2024-03-06T00:19:21;7.50;78.30
24224;DHT22;12359;49.716;9.212;2024-03-06T00:21:47;7.50;76.10
24224;DHT22;12359;49.716;9.212;2024-03-06T00:24:13;7.40;73.70
24224;DHT22;12359;49.716;9.212;2024-03-06T00:26:45;7.40;72.60
24224;DHT22;12359;49.716;9.212;2024-03-06T00:29:13;7.40;72.50
24224;DHT22;12359;49.716;9.212;2024-03-06T00:31:45;7.40;72.80
24224;DHT22;12359;49.716;9.212;2024-03-06T00:34:11;7.40;76.50
24224;DHT22;12359;49.716;9.212;2024-03-06T00:36:40;7.40;76.90
24224;DHT22;12359;49.716;9.212;2024-03-06T00:39:06;7.40;75.50
24224;DHT22;12359;49.716;9.212;2024-03-06T00:41:36;7.40;73.30
24224;DHT22;12359;49.716;9.212;2024-03-06T00:44:02;7.40;73.80
24224;DHT22;12359;49.716;9.212;2024-03-06T00:46:28;7.40;73.00
24224;DHT22;12359;49.716;9.212;2024-03-06T00:48:54;7.40;73.90
24224;DHT22;12359;49.716;9.212;2024-03-06T00:51:19;7.40;73.50
24224;DHT22;12359;49.716;9.212;2024-03-06T00:53:45;7.40;71.00
24224;DHT22;12359;49.716;9.212;2024-03-06T00:56:11;7.40;72.20
24224;DHT22;12359;49.716;9.212;2024-03-06T00:58:37;7.40;71.60
24224;DHT22;12359;49.716;9.212;2024-03-06T01:01:02;7.40;70.40
24224;DHT22;12359;49.716;9.212;2024-03-06T01:03:28;7.40;70.30
24224;DHT22;12359;49.716;9.212;2024-03-06T01:05:54;7.40;69.50
24224;DHT22;12359;49.716;9.212;2024-03-06T01:08:22;7.40;67.20
24224;DHT22;12359;49.716;9.212;2024-03-06T01:10:53;7.40;62.20
24224;DHT22;12359;49.716;9.212;2024-03-06T01:13:20;7.30;58.30
24224;DHT22;12359;49.716;9.212;2024-03-06T01:15:45;7.20;61.40
24224;DHT22;12359;49.716;9.212;2024-03-06T01:18:11;7.20;66.20
24224;DHT22;12359;49.716;9.212;2024-03-06T01:20:37;7.20;68.30
24224;DHT22;12359;49.716;9.212;2024-03-06T01:23:03;7.20;67.80
24224;DHT22;12359;49.716;9.212;2024-03-06T01:25:29;7.20;64.20
24224;DHT22;12359;49.716;9.212;2024-03-06T01:27:56;7.20;63.00
24224;DHT22;12359;49.716;9.212;2024-03-06T01:30:21;7.10;59.90
24224;DHT22;12359;49.716;9.212;2024-03-06T01:32:47;7.10;58.10
24224;DHT22;12359;49.716;9.212;2024-03-06T01:35:13;7.00;57.20
24224;DHT22;12359;49.716;9.212;2024-03-06T01:37:38;6.90;60.20
24224;DHT22;12359;49.716;9.212;2024-03-06T01:40:05;6.90;63.50
24224;DHT22;12359;49.716;9.212;2024-03-06T01:42:31;6.80;61.70
24224;DHT22;12359;49.716;9.212;2024-03-06T01:44:56;6.80;61.30
24224;DHT22;12359;49.716;9.212;2024-03-06T01:47:22;6.80;60.30
24224;DHT22;12359;49.716;9.212;2024-03-06T01:49:48;6.70;61.30
24224;DHT22;12359;49.716;9.212;2024-03-06T01:52:15;6.60;59.20
24224;DHT22;12359;49.716;9.212;2024-03-06T01:54:42;6.50;58.70
24224;DHT22;12359;49.716;9.212;2024-03-06T01:57:08;6.50;58.20
24224;DHT22;12359;49.716;9.212;2024-03-06T01:59:36;6.40;61.00
24224;DHT22;12359;49.716;9.212;2024-03-06T02:02:02;6.40;62.90
24224;DHT22;12359;49.716;9.212;2024-03-06T02:04:29;6.30;62.60
24224;DHT22;12359;49.716;9.212;2024-03-06T02:06:56;6.30;63.70
24224;DHT22;12359;49.716;9.212;2024-03-06T02:09:23;6.20;65.10
24224;DHT22;12359;49.716;9.212;2024-03-06T02:11:49;6.20;64.20
24224;DHT22;12359;49.716;9.212;2024-03-06T02:14:16;6.10;67.20
24224;DHT22;12359;49.716;9.212;2024-03-06T02:16:41;6.10;66.40
24224;DHT22;12359;49.716;9.212;2024-03-06T02:19:08;6.10;66.90
24224;DHT22;12359;49.716;9.212;2024-03-06T02:21:34;6.10;65.80
24224;DHT22;12359;49.716;9.212;2024-03-06T02:24:00;6.00;67.00
24224;DHT22;12359;49.716;9.212;2024-03-06T02:26:26;6.00;64.30
24224;DHT22;12359;49.716;9.212;2024-03-06T02:28:53;5.90;62.80
24224;DHT22;12359;49.716;9.212;2024-03-06T02:31:20;5.90;59.70
24224;DHT22;12359;49.716;9.212;2024-03-06T02:33:47;5.80;60.70
24224;DHT22;12359;49.716;9.212;2024-03-06T02:36:17;5.70;55.70
24224;DHT22;12359;49.716;9.212;2024-03-06T02:38:43;5.70;59.90
24224;DHT22;12359;49.716;9.212;2024-03-06T02:41:10;5.60;58.10
24224;DHT22;12359;49.716;9.212;2024-03-06T02:43:36;5.60;59.60
24224;DHT22;12359;49.716;9.212;2024-03-06T02:46:02;5.50;56.50
24224;DHT22;12359;49.716;9.212;2024-03-06T02:48:29;5.50;57.10
24224;DHT22;12359;49.716;9.212;2024-03-06T02:50:55;5.40;60.80
24224;DHT22;12359;49.716;9.212;2024-03-06T02:53:21;5.40;65.50
24224;DHT22;12359;49.716;9.212;2024-03-06T02:55:47;5.40;63.80
24224;DHT22;12359;49.716;9.212;2024-03-06T02:58:13;5.40;61.50
24224;DHT22;12359;49.716;9.212;2024-03-06T03:00:41;5.30;60.70
24224;DHT22;12359;49.716;9.212;2024-03-06T03:03:07;5.30;60.10
24224;DHT22;12359;49.716;9.212;2024-03-06T03:05:33;5.30;63.40
24224;DHT22;12359;49.716;9.212;2024-03-06T03:07:59;5.30;67.00
24224;DHT22;12359;49.716;9.212;2024-03-06T03:10:25;5.30;71.50
24224;DHT22;12359;49.716;9.212;2024-03-06T03:12:51;5.40;72.10
24224;DHT22;12359;49.716;9.212;2024-03-06T03:15:17;5.40;71.50
24224;DHT22;12359;49.716;9.212;2024-03-06T03:17:42;5.40;70.40
24224;DHT22;12359;49.716;9.212;2024-03-06T03:20:08;5.40;69.80
24224;DHT22;12359;49.716;9.212;2024-03-06T03:22:41;5.40;70.40
24224;DHT22;12359;49.716;9.212;2024-03-06T03:25:10;5.50;73.00
24224;DHT22;12359;49.716;9.212;2024-03-06T03:27:38;5.50;68.80
24224;DHT22;12359;49.716;9.212;2024-03-06T03:30:06;5.50;66.90
24224;DHT22;12359;49.716;9.212;2024-03-06T03:32:32;5.50;65.60
24224;DHT22;12359;49.716;9.212;2024-03-06T03:34:58;5.50;57.50
24224;DHT22;12359;49.716;9.212;2024-03-06T03:37:24;5.40;55.70
24224;DHT22;12359;49.716;9.212;2024-03-06T03:39:49;5.40;62.60
24224;DHT22;12359;49.716;9.212;2024-03-06T03:42:15;5.40;64.00
24224;DHT22;12359;49.716;9.212;2024-03-06T03:44:40;5.50;60.10
24224;DHT22;12359;49.716;9.212;2024-03-06T03:47:06;5.40;56.80
24224;DHT22;12359;49.716;9.212;2024-03-06T03:49:32;5.40;59.20
24224;DHT22;12359;49.716;9.212;2024-03-06T03:51:57;5.30;59.00
24224;DHT22;12359;49.716;9.212;2024-03-06T03:54:23;5.30;62.50
24224;DHT22;12359;49.716;9.212;2024-03-06T03:56:49;5.30;63.60
24224;DHT22;12359;49.716;9.212;2024-03-06T03:59:14;5.30;65.70
24224;DHT22;12359;49.716;9.212;2024-03-06T04:01:40;5.40;67.10
24224;DHT22;12359;49.716;9.212;2024-03-06T04:04:06;5.40;63.90
24224;DHT22;12359;49.716;9.212;2024-03-06T04:06:33;5.40;67.30
24224;DHT22;12359;49.716;9.212;2024-03-06T04:08:59;5.40;64.30
24224;DHT22;12359;49.716;9.212;2024-03-06T04:11:25;5.40;62.90
24224;DHT22;12359;49.716;9.212;2024-03-06T04:13:50;5.30;57.20
24224;DHT22;12359;49.716;9.212;2024-03-06T04:16:19;5.30;59.80
24224;DHT22;12359;49.716;9.212;2024-03-06T04:18:46;5.20;58.30
24224;DHT22;12359;49.716;9.212;2024-03-06T04:21:11;5.10;62.70
24224;DHT22;12359;49.716;9.212;2024-03-06T04:23:37;5.10;67.40
24224;DHT22;12359;49.716;9.212;2024-03-06T04:26:03;5.10;67.70
24224;DHT22;12359;49.716;9.212;2024-03-06T04:28:29;5.10;67.40
24224;DHT22;12359;49.716;9.212;2024-03-06T04:30:55;5.00;66.90
24224;DHT22;12359;49.716;9.212;2024-03-06T04:33:21;5.00;64.20
24224;DHT22;12359;49.716;9.212;2024-03-06T04:35:47;5.00;73.10
24224;DHT22;12359;49.716;9.212;2024-03-06T04:38:13;5.00;78.60
24224;DHT22;12359;49.716;9.212;2024-03-06T04:40:39;5.00;81.00
24224;DHT22;12359;49.716;9.212;2024-03-06T04:43:05;5.10;82.90
24224;DHT22;12359;49.716;9.212;2024-03-06T04:45:32;5.10;84.10
24224;DHT22;12359;49.716;9.212;2024-03-06T04:47:58;5.20;84.20
24224;DHT22;12359;49.716;9.212;2024-03-06T04:50:24;5.20;85.30
24224;DHT22;12359;49.716;9.212;2024-03-06T04:52:50;5.20;86.90
24224;DHT22;12359;49.716;9.212;2024-03-06T04:55:16;5.20;86.60
24224;DHT22;12359;49.716;9.212;2024-03-06T04:57:46;5.30;88.90
24224;DHT22;12359;49.716;9.212;2024-03-06T05:00:12;5.30;85.80
24224;DHT22;12359;49.716;9.212;2024-03-06T05:02:38;5.30;90.80
24224;DHT22;12359;49.716;9.212;2024-03-06T05:05:04;5.30;91.20
24224;DHT22;12359;49.716;9.212;2024-03-06T05:07:31;5.40;90.60
24224;DHT22;12359;49.716;9.212;2024-03-06T05:09:58;5.30;90.90
24224;DHT22;12359;49.716;9.212;2024-03-06T05:12:25;5.40;91.30
24224;DHT22;12359;49.716;9.212;2024-03-06T05:14:54;5.40;91.90
24224;DHT22;12359;49.716;9.212;2024-03-06T05:17:21;5.40;91.80
24224;DHT22;12359;49.716;9.212;2024-03-06T05:19:47;5.40;91.80
24224;DHT22;12359;49.716;9.212;2024-03-06T05:22:14;5.40;92.30
24224;DHT22;12359;49.716;9.212;2024-03-06T05:24:40;5.40;92.00
24224;DHT22;12359;49.716;9.212;2024-03-06T05:27:06;5.40;91.10
24224;DHT22;12359;49.716;9.212;2024-03-06T05:29:33;5.40;92.30
24224;DHT22;12359;49.716;9.212;2024-03-06T05:31:58;5.40;92.90
24224;DHT22;12359;49.716;9.212;2024-03-06T05:34:24;5.40;93.30
24224;DHT22;12359;49.716;9.212;2024-03-06T05:36:50;5.40;92.90
24224;DHT22;12359;49.716;9.212;2024-03-06T05:39:16;5.40;92.90
24224;DHT22;12359;49.716;9.212;2024-03-06T05:41:43;5.40;92.20
24224;DHT22;12359;49.716;9.212;2024-03-06T05:44:09;5.40;91.80
24224;DHT22;12359;49.716;9.212;2024-03-06T05:46:35;5.40;92.50
24224;DHT22;12359;49.716;9.212;2024-03-06T05:49:01;5.40;92.30
24224;DHT22;12359;49.716;9.212;2024-03-06T05:51:27;5.40;92.90
24224;DHT22;12359;49.716;9.212;2024-03-06T05:53:53;5.40;93.40
24224;DHT22;12359;49.716;9.212;2024-03-06T05:56:19;5.40;92.70
24224;DHT22;12359;49.716;9.212;2024-03-06T05:58:46;5.40;93.00
24224;DHT22;12359;49.716;9.212;2024-03-06T06:01:13;5.50;93.10
24224;DHT22;12359;49.716;9.212;2024-03-06T06:03:44;5.50;92.30
24224;DHT22;12359;49.716;9.212;2024-03-06T06:06:10;5.50;92.20
24224;DHT22;12359;49.716;9.212;2024-03-06T06:08:35;5.50;91.90
24224;DHT22;12359;49.716;9.212;2024-03-06T06:11:02;5.50;92.90
24224;DHT22;12359;49.716;9.212;2024-03-06T06:13:30;5.50;93.00
24224;DHT22;12359;49.716;9.212;2024-03-06T06:15:58;5.60;93.40
24224;DHT22;12359;49.716;9.212;2024-03-06T06:18:24;5.60;92.90
24224;DHT22;12359;49.716;9.212;2024-03-06T06:20:49;5.60;92.80
24224;DHT22;12359;49.716;9.212;2024-03-06T06:23:15;5.60;92.80
24224;DHT22;12359;49.716;9.212;2024-03-06T06:25:41;5.50;91.00
24224;DHT22;12359;49.716;9.212;2024-03-06T06:28:06;5.40;87.90
24224;DHT22;12359;49.716;9.212;2024-03-06T06:30:32;5.40;86.30
24224;DHT22;12359;49.716;9.212;2024-03-06T06:32:58;5.40;90.30
24224;DHT22;12359;49.716;9.212;2024-03-06T06:35:23;5.50;90.80
24224;DHT22;12359;49.716;9.212;2024-03-06T06:37:50;5.50;91.70
24224;DHT22;12359;49.716;9.212;2024-03-06T06:40:16;5.50;91.40
24224;DHT22;12359;49.716;9.212;2024-03-06T06:42:49;5.60;90.60
24224;DHT22;12359;49.716;9.212;2024-03-06T06:45:18;5.60;90.00
24224;DHT22;12359;49.716;9.212;2024-03-06T06:47:47;5.60;85.70
24224;DHT22;12359;49.716;9.212;2024-03-06T06:50:13;5.60;83.90
24224;DHT22;12359;49.716;9.212;2024-03-06T06:52:39;5.60;85.10
24224;DHT22;12359;49.716;9.212;2024-03-06T06:55:05;5.60;86.20
24224;DHT22;12359;49.716;9.212;2024-03-06T06:57:31;5.60;87.70
24224;DHT22;12359;49.716;9.212;2024-03-06T07:00:00;5.60;85.60
24224;DHT22;12359;49.716;9.212;2024-03-06T07:02:26;5.60;85.80
24224;DHT22;12359;49.716;9.212;2024-03-06T07:04:52;5.60;86.30
24224;DHT22;12359;49.716;9.212;2024-03-06T07:07:17;5.60;90.20
24224;DHT22;12359;49.716;9.212;2024-03-06T07:09:43;5.60;86.80
24224;DHT22;12359;49.716;9.212;2024-03-06T07:12:09;5.60;87.60
24224;DHT22;12359;49.716;9.212;2024-03-06T07:14:35;5.70;89.80
24224;DHT22;12359;49.716;9.212;2024-03-06T07:17:01;5.70;90.20
24224;DHT22;12359;49.716;9.212;2024-03-06T07:19:26;5.80;91.50
24224;DHT22;12359;49.716;9.212;2024-03-06T07:21:52;5.90;90.50
24224;DHT22;12359;49.716;9.212;2024-03-06T07:24:19;6.00;89.10
24224;DHT22;12359;49.716;9.212;2024-03-06T07:26:44;6.00;87.00
24224;DHT22;12359;49.716;9.212;2024-03-06T07:29:10;6.10;89.00
24224;DHT22;12359;49.716;9.212;2024-03-06T07:31:43;6.20;86.20
24224;DHT22;12359;49.716;9.212;2024-03-06T07:34:10;6.30;87.80
24224;DHT22;12359;49.716;9.212;2024-03-06T07:36:36;6.40;84.50
24224;DHT22;12359;49.716;9.212;2024-03-06T07:39:03;6.50;83.50
24224;DHT22;12359;49.716;9.212;2024-03-06T07:41:30;6.60;80.40
24224;DHT22;12359;49.716;9.212;2024-03-06T07:43:58;6.60;70.80
24224;DHT22;12359;49.716;9.212;2024-03-06T07:46:25;6.60;71.00
24224;DHT22;12359;49.716;9.212;2024-03-06T07:48:51;6.70;67.50
24224;DHT22;12359;49.716;9.212;2024-03-06T07:51:17;6.70;63.10
24224;DHT22;12359;49.716;9.212;2024-03-06T07:53:43;6.70;57.10
24224;DHT22;12359;49.716;9.212;2024-03-06T07:56:10;6.70;54.30
24224;DHT22;12359;49.716;9.212;2024-03-06T07:58:39;6.70;49.50
24224;DHT22;12359;49.716;9.212;2024-03-06T08:01:06;6.70;57.50
24224;DHT22;12359;49.716;9.212;2024-03-06T08:03:33;6.70;55.80
24224;DHT22;12359;49.716;9.212;2024-03-06T08:05:59;6.80;54.80
24224;DHT22;12359;49.716;9.212;2024-03-06T08:08:25;6.80;54.20
24224;DHT22;12359;49.716;9.212;2024-03-06T08:10:51;6.70;53.10
24224;DHT22;12359;49.716;9.212;2024-03-06T08:13:17;6.80;57.60
24224;DHT22;12359;49.716;9.212;2024-03-06T08:15:44;6.80;59.30
24224;DHT22;12359;49.716;9.212;2024-03-06T08:18:10;6.90;57.30
24224;DHT22;12359;49.716;9.212;2024-03-06T08:20:36;7.00;56.40
24224;DHT22;12359;49.716;9.212;2024-03-06T08:23:03;7.10;56.10
24224;DHT22;12359;49.716;9.212;2024-03-06T08:25:28;7.20;54.70
24224;DHT22;12359;49.716;9.212;2024-03-06T08:27:54;7.30;51.80
24224;DHT22;12359;49.716;9.212;2024-03-06T08:30:20;7.30;49.80
24224;DHT22;12359;49.716;9.212;2024-03-06T08:32:45;7.40;48.40
24224;DHT22;12359;49.716;9.212;2024-03-06T08:35:12;7.60;48.20
24224;DHT22;12359;49.716;9.212;2024-03-06T08:37:42;7.70;42.40
24224;DHT22;12359;49.716;9.212;2024-03-06T08:40:08;7.90;47.00
24224;DHT22;12359;49.716;9.212;2024-03-06T08:42:43;8.00;37.50
24224;DHT22;12359;49.716;9.212;2024-03-06T08:45:09;8.10;29.20
24224;DHT22;12359;49.716;9.212;2024-03-06T08:47:35;8.20;27.40
24224;DHT22;12359;49.716;9.212;2024-03-06T08:50:01;8.30;11.90
24224;DHT22;12359;49.716;9.212;2024-03-06T08:52:28;8.20;12.20
24224;DHT22;12359;49.716;9.212;2024-03-06T08:54:54;8.30;16.20
24224;DHT22;12359;49.716;9.212;2024-03-06T08:57:19;8.30;11.60
24224;DHT22;12359;49.716;9.212;2024-03-06T08:59:49;8.40;9.50
24224;DHT22;12359;49.716;9.212;2024-03-06T09:02:19;8.40;1.70
24224;DHT22;12359;49.716;9.212;2024-03-06T09:04:47;8.30;3.40
24224;DHT22;12359;49.716;9.212;2024-03-06T09:07:13;8.40;1.00
24224;DHT22;12359;49.716;9.212;2024-03-06T09:09:40;8.50;1.40
24224;DHT22;12359;49.716;9.212;2024-03-06T09:12:06;8.60;1.00
24224;DHT22;12359;49.716;9.212;2024-03-06T09:14:33;8.80;1.00
24224;DHT22;12359;49.716;9.212;2024-03-06T09:17:00;8.80;1.00
24224;DHT22;12359;49.716;9.212;2024-03-06T09:19:25;8.80;1.00
24224;DHT22;12359;49.716;9.212;2024-03-06T09:21:51;8.90;1.00
24224;DHT22;12359;49.716;9.212;2024-03-06T09:24:17;9.10;1.00
24224;DHT22;12359;49.716;9.212;2024-03-06T09:26:43;9.20;1.00
24224;DHT22;12359;49.716;9.212;2024-03-06T09:29:09;9.10;1.00
24224;DHT22;12359;49.716;9.212;2024-03-06T09:31:35;9.10;1.00
24224;DHT22;12359;49.716;9.212;2024-03-06T09:34:02;9.20;1.00
24224;DHT22;12359;49.716;9.212;2024-03-06T09:36:28;9.30;1.00
24224;DHT22;12359;49.716;9.212;2024-03-06T09:38:54;9.40;1.00
24224;DHT22;12359;49.716;9.212;2024-03-06T09:41:21;9.60;1.00
24224;DHT22;12359;49.716;9.212;2024-03-06T09:43:48;10.00;1.00
24224;DHT22;12359;49.716;9.212;2024-03-06T09:46:14;10.20;1.00
24224;DHT22;12359;49.716;9.212;2024-03-06T09:48:47;10.30;99.90
24224;DHT22;12359;49.716;9.212;2024-03-06T09:51:13;10.20;99.90
24224;DHT22;12359;49.716;9.212;2024-03-06T09:53:40;10.20;99.90
24224;DHT22;12359;49.716;9.212;2024-03-06T09:56:07;10.10;99.90
24224;DHT22;12359;49.716;9.212;2024-03-06T09:58:34;10.10;99.90
24224;DHT22;12359;49.716;9.212;2024-03-06T10:01:01;10.00;1.00
24224;DHT22;12359;49.716;9.212;2024-03-06T10:03:29;9.80;99.90
24224;DHT22;12359;49.716;9.212;2024-03-06T10:05:55;9.60;99.90
24224;DHT22;12359;49.716;9.212;2024-03-06T10:08:22;9.70;1.00
24224;DHT22;12359;49.716;9.212;2024-03-06T10:10:49;9.50;1.00
24224;DHT22;12359;49.716;9.212;2024-03-06T10:13:16;9.40;1.00
24224;DHT22;12359;49.716;9.212;2024-03-06T10:16:02;9.40;1.00
24224;DHT22;12359;49.716;9.212;2024-03-06T10:18:28;9.40;1.00
24224;DHT22;12359;49.716;9.212;2024-03-06T10:20:58;9.30;1.00
24224;DHT22;12359;49.716;9.212;2024-03-06T10:23:24;9.30;1.00
24224;DHT22;12359;49.716;9.212;2024-03-06T10:25:50;9.30;1.00
24224;DHT22;12359;49.716;9.212;2024-03-06T10:28:22;9.20;1.00
24224;DHT22;12359;49.716;9.212;2024-03-06T10:30:49;9.20;1.00
24224;DHT22;12359;49.716;9.212;2024-03-06T10:33:16;9.30;1.00
24224;DHT22;12359;49.716;9.212;2024-03-06T10:35:47;9.20;1.00
24224;DHT22;12359;49.716;9.212;2024-03-06T10:38:20;9.20;1.00
24224;DHT22;12359;49.716;9.212;2024-03-06T10:40:46;9.30;1.00
24224;DHT22;12359;49.716;9.212;2024-03-06T10:43:12;9.40;1.00
24224;DHT22;12359;49.716;9.212;2024-03-06T10:45:47;9.50;1.00
24224;DHT22;12359;49.716;9.212;2024-03-06T10:48:14;9.50;1.00
24224;DHT22;12359;49.716;9.212;2024-03-06T10:50:41;9.50;1.00
24224;DHT22;12359;49.716;9.212;2024-03-06T10:53:10;9.50;1.00
24224;DHT22;12359;49.716;9.212;2024-03-06T10:55:36;9.50;1.00
24224;DHT22;12359;49.716;9.212;2024-03-06T10:58:05;9.60;1.00
24224;DHT22;12359;49.716;9.212;2024-03-06T11:00:35;9.60;1.00
24224;DHT22;12359;49.716;9.212;2024-03-06T11:03:05;9.70;1.00
24224;DHT22;12359;49.716;9.212;2024-03-06T11:05:38;9.70;1.00
24224;DHT22;12359;49.716;9.212;2024-03-06T11:08:08;9.70;1.00
24224;DHT22;12359;49.716;9.212;2024-03-06T11:10:35;9.60;1.00
24224;DHT22;12359;49.716;9.212;2024-03-06T11:13:02;9.60;1.00
24224;DHT22;12359;49.716;9.212;2024-03-06T11:15:28;9.60;1.00
24224;DHT22;12359;49.716;9.212;2024-03-06T11:17:54;9.50;1.00
24224;DHT22;12359;49.716;9.212;2024-03-06T11:20:23;9.50;1.00
24224;DHT22;12359;49.716;9.212;2024-03-06T11:28:24;9.70;1.00
24224;DHT22;12359;49.716;9.212;2024-03-06T11:33:39;10.20;1.00
24224;DHT22;12359;49.716;9.212;2024-03-06T11:38:58;10.60;99.90
24224;DHT22;12359;49.716;9.212;2024-03-06T11:41:52;10.80;99.90
24224;DHT22;12359;49.716;9.212;2024-03-06T11:44:18;11.00;99.90
24224;DHT22;12359;49.716;9.212;2024-03-06T11:49:20;11.40;99.90
24224;DHT22;12359;49.716;9.212;2024-03-06T11:51:50;11.50;99.90
24224;DHT22;12359;49.716;9.212;2024-03-06T11:54:16;11.40;43.60
24224;DHT22;12359;49.716;9.212;2024-03-06T11:56:45;11.50;99.90
24224;DHT22;12359;49.716;9.212;2024-03-06T11:59:15;11.60;99.90
24224;DHT22;12359;49.716;9.212;2024-03-06T12:01:41;11.50;3.60
24224;DHT22;12359;49.716;9.212;2024-03-06T12:04:07;11.30;1.00
24224;DHT22;12359;49.716;9.212;2024-03-06T12:06:35;11.20;99.20
24224;DHT22;12359;49.716;9.212;2024-03-06T12:09:01;11.10;99.90
24224;DHT22;12359;49.716;9.212;2024-03-06T12:11:27;11.00;99.90
24224;DHT22;12359;49.716;9.212;2024-03-06T12:13:54;10.90;99.90
24224;DHT22;12359;49.716;9.212;2024-03-06T12:16:21;10.90;99.90
24224;DHT22;12359;49.716;9.212;2024-03-06T12:18:46;10.70;99.90
24224;DHT22;12359;49.716;9.212;2024-03-06T12:21:19;10.70;99.90
24224;DHT22;12359;49.716;9.212;2024-03-06T12:23:44;10.70;99.90
24224;DHT22;12359;49.716;9.212;2024-03-06T12:26:10;10.60;99.90
24224;DHT22;12359;49.716;9.212;2024-03-06T12:28:39;10.50;99.90
24224;DHT22;12359;49.716;9.212;2024-03-06T12:31:05;10.50;99.90
24224;DHT22;12359;49.716;9.212;2024-03-06T12:33:33;10.40;99.90
24224;DHT22;12359;49.716;9.212;2024-03-06T12:36:08;10.30;1.00
24224;DHT22;12359;49.716;9.212;2024-03-06T12:38:36;10.20;1.00
24224;DHT22;12359;49.716;9.212;2024-03-06T12:41:03;10.20;1.00
24224;DHT22;12359;49.716;9.212;2024-03-06T12:43:29;10.10;1.00
24224;DHT22;12359;49.716;9.212;2024-03-06T12:45:56;10.10;1.00
24224;DHT22;12359;49.716;9.212;2024-03-06T12:48:23;10.10;1.00
24224;DHT22;12359;49.716;9.212;2024-03-06T12:50:48;10.10;1.00
24224;DHT22;12359;49.716;9.212;2024-03-06T12:53:21;10.20;1.00
24224;DHT22;12359;49.716;9.212;2024-03-06T12:55:47;10.30;1.00
24224;DHT22;12359;49.716;9.212;2024-03-06T12:58:13;10.40;1.00
24224;DHT22;12359;49.716;9.212;2024-03-06T13:00:40;10.40;1.00
24224;DHT22;12359;49.716;9.212;2024-03-06T13:03:06;10.40;1.00
24224;DHT22;12359;49.716;9.212;2024-03-06T13:05:31;10.50;1.00
24224;DHT22;12359;49.716;9.212;2024-03-06T13:07:58;10.50;1.00
24224;DHT22;12359;49.716;9.212;2024-03-06T13:10:25;10.70;1.00
24224;DHT22;12359;49.716;9.212;2024-03-06T13:12:50;10.80;1.00
24224;DHT22;12359;49.716;9.212;2024-03-06T13:15:16;10.90;99.90
24224;DHT22;12359;49.716;9.212;2024-03-06T13:17:42;11.00;99.90
24224;DHT22;12359;49.716;9.212;2024-03-06T13:20:08;11.20;99.90
24224;DHT22;12359;49.716;9.212;2024-03-06T13:22:37;11.40;99.90
24224;DHT22;12359;49.716;9.212;2024-03-06T13:25:04;11.50;99.90
24224;DHT22;12359;49.716;9.212;2024-03-06T13:27:30;11.60;99.90
24224;DHT22;12359;49.716;9.212;2024-03-06T13:29:56;11.70;99.90
24224;DHT22;12359;49.716;9.212;2024-03-06T13:32:22;11.70;1.00
24224;DHT22;12359;49.716;9.212;2024-03-06T13:34:48;11.70;1.00
24224;DHT22;12359;49.716;9.212;2024-03-06T13:37:14;11.80;59.40
24224;DHT22;12359;49.716;9.212;2024-03-06T13:39:40;11.70;48.40
24224;DHT22;12359;49.716;9.212;2024-03-06T13:42:06;11.70;1.00
24224;DHT22;12359;49.716;9.212;2024-03-06T13:44:34;11.60;1.00
24224;DHT22;12359;49.716;9.212;2024-03-06T13:47:00;11.60;1.00
24224;DHT22;12359;49.716;9.212;2024-03-06T13:49:36;11.50;1.00
24224;DHT22;12359;49.716;9.212;2024-03-06T13:52:02;11.50;1.00
24224;DHT22;12359;49.716;9.212;2024-03-06T13:54:30;11.50;1.00
24224;DHT22;12359;49.716;9.212;2024-03-06T13:56:56;11.50;1.00
24224;DHT22;12359;49.716;9.212;2024-03-06T13:59:28;11.50;1.00
24224;DHT22;12359;49.716;9.212;2024-03-06T14:01:54;11.50;1.00
24224;DHT22;12359;49.716;9.212;2024-03-06T14:04:20;11.60;1.00
24224;DHT22;12359;49.716;9.212;2024-03-06T14:06:45;11.60;1.00
24224;DHT22;12359;49.716;9.212;2024-03-06T14:09:11;11.80;1.00
24224;DHT22;12359;49.716;9.212;2024-03-06T14:11:39;11.90;1.00
24224;DHT22;12359;49.716;9.212;2024-03-06T14:14:05;12.10;99.90
24224;DHT22;12359;49.716;9.212;2024-03-06T14:16:31;12.10;99.90
24224;DHT22;12359;49.716;9.212;2024-03-06T14:18:57;12.00;99.90
24224;DHT22;12359;49.716;9.212;2024-03-06T14:21:23;12.00;99.90
24224;DHT22;12359;49.716;9.212;2024-03-06T14:23:49;12.00;99.90
24224;DHT22;12359;49.716;9.212;2024-03-06T14:26:15;12.10;99.50
24224;DHT22;12359;49.716;9.212;2024-03-06T14:28:41;12.10;1.90
24224;DHT22;12359;49.716;9.212;2024-03-06T14:31:07;12.10;72.40
24224;DHT22;12359;49.716;9.212;2024-03-06T14:33:33;12.10;93.90
24224;DHT22;12359;49.716;9.212;2024-03-06T14:35:59;12.10;99.90
24224;DHT22;12359;49.716;9.212;2024-03-06T14:38:25;12.10;95.10
24224;DHT22;12359;49.716;9.212;2024-03-06T14:40:51;12.10;96.80
24224;DHT22;12359;49.716;9.212;2024-03-06T14:43:16;12.10;99.90
24224;DHT22;12359;49.716;9.212;2024-03-06T14:45:45;12.00;46.70
24224;DHT22;12359;49.716;9.212;2024-03-06T14:48:11;12.00;22.70
24224;DHT22;12359;49.716;9.212;2024-03-06T14:50:36;12.00;30.50
24224;DHT22;12359;49.716;9.212;2024-03-06T14:53:02;11.90;99.90
24224;DHT22;12359;49.716;9.212;2024-03-06T14:55:28;11.80;9.70
24224;DHT22;12359;49.716;9.212;2024-03-06T14:57:54;11.60;99.90
24224;DHT22;12359;49.716;9.212;2024-03-06T15:00:19;11.60;99.90
24224;DHT22;12359;49.716;9.212;2024-03-06T15:02:48;11.50;99.90
24224;DHT22;12359;49.716;9.212;2024-03-06T15:05:14;11.50;99.90
24224;DHT22;12359;49.716;9.212;2024-03-06T15:07:40;11.50;99.90
24224;DHT22;12359;49.716;9.212;2024-03-06T15:10:06;11.60;99.90
24224;DHT22;12359;49.716;9.212;2024-03-06T15:12:34;11.60;99.90
24224;DHT22;12359;49.716;9.212;2024-03-06T15:15:01;11.50;99.90
24224;DHT22;12359;49.716;9.212;2024-03-06T15:17:28;11.50;99.90
24224;DHT22;12359;49.716;9.212;2024-03-06T15:19:54;11.30;1.00
24224;DHT22;12359;49.716;9.212;2024-03-06T15:22:19;11.30;1.00
24224;DHT22;12359;49.716;9.212;2024-03-06T15:24:45;11.20;1.00
24224;DHT22;12359;49.716;9.212;2024-03-06T15:27:11;11.20;99.90
24224;DHT22;12359;49.716;9.212;2024-03-06T15:29:37;11.10;99.90
24224;DHT22;12359;49.716;9.212;2024-03-06T15:32:03;11.10;99.90
24224;DHT22;12359;49.716;9.212;2024-03-06T15:34:29;11.10;99.90
24224;DHT22;12359;49.716;9.212;2024-03-06T15:36:55;11.10;99.90
24224;DHT22;12359;49.716;9.212;2024-03-06T15:39:21;11.00;99.90
24224;DHT22;12359;49.716;9.212;2024-03-06T15:41:47;11.00;99.90
24224;DHT22;12359;49.716;9.212;2024-03-06T15:44:12;11.00;99.90
24224;DHT22;12359;49.716;9.212;2024-03-06T15:46:38;11.00;99.90
24224;DHT22;12359;49.716;9.212;2024-03-06T15:49:17;10.90;99.90
24224;DHT22;12359;49.716;9.212;2024-03-06T15:51:44;11.00;99.90
24224;DHT22;12359;49.716;9.212;2024-03-06T15:54:10;10.90;99.90
24224;DHT22;12359;49.716;9.212;2024-03-06T15:56:36;10.90;99.90